sensor_id;sensor_type;location;lat;lon;timestamp;P1;durP1;ratioP1;P2;durP2;ratioP2
30062;SDS011;16889;67.864;24.990;2022-08-06T00:02:48;2.70;;;0.40;;
30062;SDS011;16889;67.864;24.990;2022-08-06T00:07:34;2.60;;;0.52;;
30062;SDS011;16889;67.864;24.990;2022-08-06T00:12:20;6.30;;;0.40;;
30062;SDS011;16889;67.864;24.990;2022-08-06T00:17:06;18.13;;;0.75;;
30062;SDS011;16889;67.864;24.990;2022-08-06T00:21:52;4.65;;;0.43;;
30062;SDS011;16889;67.864;24.990;2022-08-06T00:26:39;1.33;;;0.50;;
30062;SDS011;16889;67.864;24.990;2022-08-06T00:31:25;8.18;;;0.60;;
30062;SDS011;16889;67.864;24.990;2022-08-06T00:36:11;3.63;;;0.40;;
30062;SDS011;16889;67.864;24.990;2022-08-06T00:40:57;0.75;;;0.40;;
30062;SDS011;16889;67.864;24.990;2022-08-06T00:45:43;9.70;;;1.20;;
30062;SDS011;16889;67.864;24.990;2022-08-06T00:50:30;3.70;;;0.70;;
30062;SDS011;16889;67.864;24.990;2022-08-06T00:55:16;5.80;;;0.63;;
30062;SDS011;16889;67.864;24.990;2022-08-06T01:00:03;4.30;;;0.50;;
30062;SDS011;16889;67.864;24.990;2022-08-06T01:04:50;13.30;;;0.70;;
30062;SDS011;16889;67.864;24.990;2022-08-06T01:09:36;9.32;;;0.85;;
30062;SDS011;16889;67.864;24.990;2022-08-06T01:14:22;5.85;;;0.50;;
30062;SDS011;16889;67.864;24.990;2022-08-06T01:29:15;2.75;;;0.50;;
30062;SDS011;16889;67.864;24.990;2022-08-06T01:34:12;3.58;;;0.55;;
30062;SDS011;16889;67.864;24.990;2022-08-06T01:39:04;6.60;;;0.40;;
30062;SDS011;16889;67.864;24.990;2022-08-06T01:43:50;7.85;;;0.50;;
30062;SDS011;16889;67.864;24.990;2022-08-06T01:48:36;5.28;;;0.50;;
30062;SDS011;16889;67.864;24.990;2022-08-06T01:58:15;12.02;;;0.80;;
30062;SDS011;16889;67.864;24.990;2022-08-06T02:03:14;7.32;;;0.90;;
30062;SDS011;16889;67.864;24.990;2022-08-06T02:08:07;4.90;;;0.85;;
30062;SDS011;16889;67.864;24.990;2022-08-06T02:12:57;4.47;;;0.70;;
30062;SDS011;16889;67.864;24.990;2022-08-06T02:17:50;8.23;;;0.82;;
30062;SDS011;16889;67.864;24.990;2022-08-06T02:22:39;8.80;;;0.90;;
30062;SDS011;16889;67.864;24.990;2022-08-06T02:27:27;6.05;;;0.77;;
30062;SDS011;16889;67.864;24.990;2022-08-06T02:32:14;3.35;;;0.70;;
30062;SDS011;16889;67.864;24.990;2022-08-06T02:37:13;5.85;;;1.00;;
30062;SDS011;16889;67.864;24.990;2022-08-06T02:47:13;5.45;;;0.68;;
30062;SDS011;16889;67.864;24.990;2022-08-06T02:52:08;5.68;;;0.60;;
30062;SDS011;16889;67.864;24.990;2022-08-06T02:57:02;7.75;;;1.00;;
30062;SDS011;16889;67.864;24.990;2022-08-06T03:01:55;9.88;;;0.98;;
30062;SDS011;16889;67.864;24.990;2022-08-06T03:06:45;12.68;;;1.05;;
30062;SDS011;16889;67.864;24.990;2022-08-06T03:11:34;9.73;;;0.88;;
30062;SDS011;16889;67.864;24.990;2022-08-06T03:16:21;7.67;;;1.17;;
30062;SDS011;16889;67.864;24.990;2022-08-06T03:21:09;6.85;;;1.45;;
30062;SDS011;16889;67.864;24.990;2022-08-06T03:25:55;6.20;;;1.08;;
30062;SDS011;16889;67.864;24.990;2022-08-06T03:30:43;2.75;;;1.00;;
30062;SDS011;16889;67.864;24.990;2022-08-06T03:35:30;7.93;;;1.13;;
30062;SDS011;16889;67.864;24.990;2022-08-06T03:40:18;7.00;;;1.10;;
30062;SDS011;16889;67.864;24.990;2022-08-06T03:45:06;5.90;;;0.70;;
30062;SDS011;16889;67.864;24.990;2022-08-06T03:49:55;8.13;;;1.08;;
30062;SDS011;16889;67.864;24.990;2022-08-06T03:54:48;3.97;;;1.15;;
30062;SDS011;16889;67.864;24.990;2022-08-06T03:59:38;8.13;;;1.05;;
30062;SDS011;16889;67.864;24.990;2022-08-06T04:04:27;3.67;;;0.90;;
30062;SDS011;16889;67.864;24.990;2022-08-06T04:09:16;6.38;;;1.08;;
30062;SDS011;16889;67.864;24.990;2022-08-06T04:14:04;4.82;;;1.08;;
30062;SDS011;16889;67.864;24.990;2022-08-06T04:18:50;6.00;;;1.10;;
30062;SDS011;16889;67.864;24.990;2022-08-06T04:23:40;7.20;;;1.10;;
30062;SDS011;16889;67.864;24.990;2022-08-06T04:28:28;7.18;;;1.30;;
30062;SDS011;16889;67.864;24.990;2022-08-06T04:33:17;7.18;;;1.08;;
30062;SDS011;16889;67.864;24.990;2022-08-06T04:38:05;8.30;;;1.60;;
30062;SDS011;16889;67.864;24.990;2022-08-06T04:42:52;4.65;;;1.00;;
30062;SDS011;16889;67.864;24.990;2022-08-06T04:47:39;6.68;;;0.95;;
30062;SDS011;16889;67.864;24.990;2022-08-06T04:52:26;6.75;;;1.35;;
30062;SDS011;16889;67.864;24.990;2022-08-06T04:57:13;5.15;;;0.90;;
30062;SDS011;16889;67.864;24.990;2022-08-06T05:01:59;10.48;;;1.23;;
30062;SDS011;16889;67.864;24.990;2022-08-06T05:11:47;7.93;;;0.80;;
30062;SDS011;16889;67.864;24.990;2022-08-06T05:16:39;4.93;;;0.88;;
30062;SDS011;16889;67.864;24.990;2022-08-06T05:21:36;10.35;;;0.90;;
30062;SDS011;16889;67.864;24.990;2022-08-06T05:26:23;10.27;;;0.98;;
30062;SDS011;16889;67.864;24.990;2022-08-06T05:31:10;7.57;;;0.93;;
30062;SDS011;16889;67.864;24.990;2022-08-06T05:35:56;4.53;;;1.00;;
30062;SDS011;16889;67.864;24.990;2022-08-06T05:40:43;6.83;;;1.17;;
30062;SDS011;16889;67.864;24.990;2022-08-06T05:45:29;6.60;;;1.00;;
30062;SDS011;16889;67.864;24.990;2022-08-06T05:50:18;7.97;;;1.20;;
30062;SDS011;16889;67.864;24.990;2022-08-06T05:56:10;7.47;;;0.90;;
30062;SDS011;16889;67.864;24.990;2022-08-06T06:00:25;4.88;;;0.73;;
30062;SDS011;16889;67.864;24.990;2022-08-06T06:05:14;5.95;;;0.85;;
30062;SDS011;16889;67.864;24.990;2022-08-06T06:10:04;5.28;;;0.85;;
30062;SDS011;16889;67.864;24.990;2022-08-06T06:14:51;6.03;;;0.85;;
30062;SDS011;16889;67.864;24.990;2022-08-06T06:24:46;4.75;;;1.00;;
30062;SDS011;16889;67.864;24.990;2022-08-06T06:39:48;10.57;;;0.90;;
30062;SDS011;16889;67.864;24.990;2022-08-06T06:44:58;4.60;;;0.90;;
30062;SDS011;16889;67.864;24.990;2022-08-06T06:50:19;3.40;;;0.57;;
30062;SDS011;16889;67.864;24.990;2022-08-06T06:55:13;6.07;;;0.90;;
30062;SDS011;16889;67.864;24.990;2022-08-06T07:00:11;4.28;;;0.73;;
30062;SDS011;16889;67.864;24.990;2022-08-06T07:04:58;6.43;;;0.90;;
30062;SDS011;16889;67.864;24.990;2022-08-06T07:09:47;4.07;;;0.90;;
30062;SDS011;16889;67.864;24.990;2022-08-06T07:14:35;10.68;;;1.10;;
30062;SDS011;16889;67.864;24.990;2022-08-06T07:19:23;5.00;;;0.90;;
30062;SDS011;16889;67.864;24.990;2022-08-06T07:24:11;6.47;;;1.10;;
30062;SDS011;16889;67.864;24.990;2022-08-06T07:28:57;16.08;;;1.33;;
30062;SDS011;16889;67.864;24.990;2022-08-06T07:33:46;6.07;;;0.88;;
30062;SDS011;16889;67.864;24.990;2022-08-06T07:38:33;4.00;;;1.00;;
30062;SDS011;16889;67.864;24.990;2022-08-06T07:43:21;3.50;;;0.88;;
30062;SDS011;16889;67.864;24.990;2022-08-06T07:48:12;4.00;;;0.88;;
30062;SDS011;16889;67.864;24.990;2022-08-06T07:52:59;4.00;;;1.05;;
30062;SDS011;16889;67.864;24.990;2022-08-06T07:57:45;6.82;;;0.95;;
30062;SDS011;16889;67.864;24.990;2022-08-06T08:02:32;7.13;;;0.95;;
30062;SDS011;16889;67.864;24.990;2022-08-06T08:07:19;7.35;;;1.20;;
30062;SDS011;16889;67.864;24.990;2022-08-06T08:12:06;4.82;;;1.33;;
30062;SDS011;16889;67.864;24.990;2022-08-06T08:16:53;5.72;;;1.17;;
30062;SDS011;16889;67.864;24.990;2022-08-06T08:21:39;6.38;;;1.25;;
30062;SDS011;16889;67.864;24.990;2022-08-06T08:26:25;6.85;;;1.20;;
30062;SDS011;16889;67.864;24.990;2022-08-06T08:31:11;7.35;;;1.30;;
30062;SDS011;16889;67.864;24.990;2022-08-06T08:35:59;7.90;;;1.30;;
30062;SDS011;16889;67.864;24.990;2022-08-06T08:40:47;6.90;;;1.30;;
30062;SDS011;16889;67.864;24.990;2022-08-06T08:45:34;6.40;;;1.50;;
30062;SDS011;16889;67.864;24.990;2022-08-06T08:50:22;8.10;;;1.60;;
30062;SDS011;16889;67.864;24.990;2022-08-06T08:55:12;5.75;;;1.60;;
30062;SDS011;16889;67.864;24.990;2022-08-06T09:00:01;3.33;;;1.25;;
30062;SDS011;16889;67.864;24.990;2022-08-06T09:04:49;8.00;;;1.65;;
30062;SDS011;16889;67.864;24.990;2022-08-06T09:09:37;4.20;;;1.33;;
30062;SDS011;16889;67.864;24.990;2022-08-06T09:14:24;4.87;;;1.40;;
30062;SDS011;16889;67.864;24.990;2022-08-06T09:19:10;7.13;;;1.85;;
30062;SDS011;16889;67.864;24.990;2022-08-06T09:23:57;10.70;;;1.98;;
30062;SDS011;16889;67.864;24.990;2022-08-06T09:28:44;8.98;;;1.83;;
30062;SDS011;16889;67.864;24.990;2022-08-06T09:33:31;5.50;;;1.50;;
30062;SDS011;16889;67.864;24.990;2022-08-06T09:38:19;10.25;;;2.35;;
30062;SDS011;16889;67.864;24.990;2022-08-06T09:43:05;8.52;;;1.80;;
30062;SDS011;16889;67.864;24.990;2022-08-06T09:48:02;9.20;;;1.63;;
30062;SDS011;16889;67.864;24.990;2022-08-06T09:57:45;12.07;;;1.95;;
30062;SDS011;16889;67.864;24.990;2022-08-06T10:02:32;6.93;;;1.92;;
30062;SDS011;16889;67.864;24.990;2022-08-06T10:07:28;6.10;;;1.73;;
30062;SDS011;16889;67.864;24.990;2022-08-06T10:12:19;6.43;;;1.83;;
30062;SDS011;16889;67.864;24.990;2022-08-06T10:26:53;8.38;;;1.77;;
30062;SDS011;16889;67.864;24.990;2022-08-06T10:31:40;6.72;;;2.13;;
30062;SDS011;16889;67.864;24.990;2022-08-06T10:36:31;6.38;;;1.95;;
30062;SDS011;16889;67.864;24.990;2022-08-06T10:41:20;11.82;;;2.08;;
30062;SDS011;16889;67.864;24.990;2022-08-06T10:46:08;5.85;;;1.58;;
30062;SDS011;16889;67.864;24.990;2022-08-06T10:50:59;7.65;;;2.03;;
30062;SDS011;16889;67.864;24.990;2022-08-06T10:55:46;10.63;;;2.35;;
30062;SDS011;16889;67.864;24.990;2022-08-06T11:00:33;8.68;;;2.00;;
30062;SDS011;16889;67.864;24.990;2022-08-06T11:05:20;8.05;;;2.13;;
30062;SDS011;16889;67.864;24.990;2022-08-06T11:10:26;6.50;;;1.98;;
30062;SDS011;16889;67.864;24.990;2022-08-06T11:15:22;9.95;;;2.00;;
30062;SDS011;16889;67.864;24.990;2022-08-06T11:20:33;9.30;;;2.08;;
30062;SDS011;16889;67.864;24.990;2022-08-06T11:25:17;7.13;;;2.13;;
30062;SDS011;16889;67.864;24.990;2022-08-06T11:30:23;7.97;;;1.77;;
30062;SDS011;16889;67.864;24.990;2022-08-06T11:40:21;8.40;;;2.05;;
30062;SDS011;16889;67.864;24.990;2022-08-06T11:49:55;8.15;;;2.20;;
30062;SDS011;16889;67.864;24.990;2022-08-06T11:59:30;4.32;;;2.00;;
30062;SDS011;16889;67.864;24.990;2022-08-06T12:09:21;12.10;;;2.70;;
30062;SDS011;16889;67.864;24.990;2022-08-06T12:14:36;7.40;;;2.35;;
30062;SDS011;16889;67.864;24.990;2022-08-06T12:19:24;10.63;;;2.15;;
30062;SDS011;16889;67.864;24.990;2022-08-06T12:24:11;6.47;;;1.98;;
30062;SDS011;16889;67.864;24.990;2022-08-06T12:28:59;9.82;;;2.10;;
30062;SDS011;16889;67.864;24.990;2022-08-06T12:33:49;9.60;;;2.60;;
30062;SDS011;16889;67.864;24.990;2022-08-06T12:38:35;10.32;;;2.38;;
30062;SDS011;16889;67.864;24.990;2022-08-06T12:43:22;18.92;;;2.33;;
30062;SDS011;16889;67.864;24.990;2022-08-06T12:48:09;10.10;;;2.38;;
30062;SDS011;16889;67.864;24.990;2022-08-06T12:53:06;5.60;;;2.25;;
30062;SDS011;16889;67.864;24.990;2022-08-06T12:57:55;6.43;;;2.22;;
30062;SDS011;16889;67.864;24.990;2022-08-06T13:02:41;7.20;;;2.70;;
30062;SDS011;16889;67.864;24.990;2022-08-06T13:07:28;9.18;;;2.55;;
30062;SDS011;16889;67.864;24.990;2022-08-06T13:12:15;6.00;;;2.33;;
30062;SDS011;16889;67.864;24.990;2022-08-06T13:17:10;7.55;;;2.40;;
30062;SDS011;16889;67.864;24.990;2022-08-06T13:21:58;13.55;;;2.78;;
30062;SDS011;16889;67.864;24.990;2022-08-06T13:26:50;9.23;;;2.55;;
30062;SDS011;16889;67.864;24.990;2022-08-06T13:31:39;6.75;;;2.78;;
30062;SDS011;16889;67.864;24.990;2022-08-06T13:36:27;9.98;;;3.25;;
30062;SDS011;16889;67.864;24.990;2022-08-06T13:41:23;8.15;;;2.67;;
30062;SDS011;16889;67.864;24.990;2022-08-06T13:46:13;8.38;;;2.95;;
30062;SDS011;16889;67.864;24.990;2022-08-06T13:51:01;5.63;;;2.90;;
30062;SDS011;16889;67.864;24.990;2022-08-06T13:55:47;10.10;;;3.30;;
30062;SDS011;16889;67.864;24.990;2022-08-06T14:00:35;12.63;;;3.50;;
30062;SDS011;16889;67.864;24.990;2022-08-06T14:10:08;7.43;;;2.85;;
30062;SDS011;16889;67.864;24.990;2022-08-06T14:14:54;7.30;;;2.60;;
30062;SDS011;16889;67.864;24.990;2022-08-06T14:19:40;7.75;;;2.90;;
30062;SDS011;16889;67.864;24.990;2022-08-06T14:24:26;7.63;;;3.03;;
30062;SDS011;16889;67.864;24.990;2022-08-06T14:29:12;9.23;;;2.78;;
30062;SDS011;16889;67.864;24.990;2022-08-06T14:33:58;9.48;;;2.55;;
30062;SDS011;16889;67.864;24.990;2022-08-06T14:38:45;5.07;;;2.53;;
30062;SDS011;16889;67.864;24.990;2022-08-06T14:43:31;10.07;;;2.80;;
30062;SDS011;16889;67.864;24.990;2022-08-06T14:48:36;4.22;;;1.70;;
30062;SDS011;16889;67.864;24.990;2022-08-06T14:53:21;4.82;;;1.90;;
30062;SDS011;16889;67.864;24.990;2022-08-06T14:58:08;7.00;;;1.70;;
30062;SDS011;16889;67.864;24.990;2022-08-06T15:02:53;6.40;;;1.83;;
30062;SDS011;16889;67.864;24.990;2022-08-06T15:07:39;5.47;;;1.67;;
30062;SDS011;16889;67.864;24.990;2022-08-06T15:12:25;5.55;;;1.73;;
30062;SDS011;16889;67.864;24.990;2022-08-06T15:17:11;2.83;;;1.30;;
30062;SDS011;16889;67.864;24.990;2022-08-06T15:21:58;4.15;;;1.50;;
30062;SDS011;16889;67.864;24.990;2022-08-06T15:26:44;6.75;;;1.55;;
30062;SDS011;16889;67.864;24.990;2022-08-06T15:31:30;5.35;;;1.50;;
30062;SDS011;16889;67.864;24.990;2022-08-06T15:36:16;3.78;;;1.33;;
30062;SDS011;16889;67.864;24.990;2022-08-06T15:41:07;3.53;;;1.60;;
30062;SDS011;16889;67.864;24.990;2022-08-06T15:45:53;5.75;;;1.10;;
30062;SDS011;16889;67.864;24.990;2022-08-06T15:50:42;5.10;;;1.48;;
30062;SDS011;16889;67.864;24.990;2022-08-06T15:55:28;4.72;;;1.75;;
30062;SDS011;16889;67.864;24.990;2022-08-06T16:00:15;7.00;;;1.48;;
30062;SDS011;16889;67.864;24.990;2022-08-06T16:05:02;3.97;;;1.50;;
30062;SDS011;16889;67.864;24.990;2022-08-06T16:09:49;10.43;;;1.45;;
30062;SDS011;16889;67.864;24.990;2022-08-06T16:14:35;3.20;;;1.60;;
30062;SDS011;16889;67.864;24.990;2022-08-06T16:19:21;2.75;;;1.60;;
30062;SDS011;16889;67.864;24.990;2022-08-06T16:24:07;4.82;;;1.70;;
30062;SDS011;16889;67.864;24.990;2022-08-06T16:28:53;7.07;;;1.80;;
30062;SDS011;16889;67.864;24.990;2022-08-06T16:33:39;2.88;;;1.60;;
30062;SDS011;16889;67.864;24.990;2022-08-06T16:38:25;5.55;;;1.95;;
30062;SDS011;16889;67.864;24.990;2022-08-06T16:43:11;6.50;;;1.63;;
30062;SDS011;16889;67.864;24.990;2022-08-06T16:47:57;1.75;;;1.45;;
30062;SDS011;16889;67.864;24.990;2022-08-06T16:52:43;6.45;;;1.35;;
30062;SDS011;16889;67.864;24.990;2022-08-06T16:57:29;15.00;;;1.40;;
30062;SDS011;16889;67.864;24.990;2022-08-06T17:02:15;2.85;;;1.05;;
30062;SDS011;16889;67.864;24.990;2022-08-06T17:07:19;6.55;;;1.70;;
30062;SDS011;16889;67.864;24.990;2022-08-06T17:12:05;2.42;;;1.50;;
30062;SDS011;16889;67.864;24.990;2022-08-06T17:16:51;3.88;;;1.27;;
30062;SDS011;16889;67.864;24.990;2022-08-06T17:21:37;4.45;;;1.27;;
30062;SDS011;16889;67.864;24.990;2022-08-06T17:26:23;1.83;;;1.10;;
30062;SDS011;16889;67.864;24.990;2022-08-06T17:31:09;3.20;;;0.85;;
30062;SDS011;16889;67.864;24.990;2022-08-06T17:35:55;0.65;;;0.63;;
30062;SDS011;16889;67.864;24.990;2022-08-06T17:40:41;2.35;;;0.80;;
30062;SDS011;16889;67.864;24.990;2022-08-06T17:45:27;2.20;;;0.50;;
30062;SDS011;16889;67.864;24.990;2022-08-06T17:50:13;1.35;;;0.60;;
30062;SDS011;16889;67.864;24.990;2022-08-06T17:54:59;2.70;;;0.77;;
30062;SDS011;16889;67.864;24.990;2022-08-06T17:59:45;1.85;;;0.70;;
30062;SDS011;16889;67.864;24.990;2022-08-06T18:04:31;2.17;;;0.63;;
30062;SDS011;16889;67.864;24.990;2022-08-06T18:09:17;4.85;;;0.60;;
30062;SDS011;16889;67.864;24.990;2022-08-06T18:14:03;2.72;;;0.60;;
30062;SDS011;16889;67.864;24.990;2022-08-06T18:18:50;1.13;;;0.50;;
30062;SDS011;16889;67.864;24.990;2022-08-06T18:23:36;4.50;;;0.55;;
30062;SDS011;16889;67.864;24.990;2022-08-06T18:28:22;3.30;;;0.57;;
30062;SDS011;16889;67.864;24.990;2022-08-06T18:33:08;0.50;;;0.40;;
30062;SDS011;16889;67.864;24.990;2022-08-06T18:37:55;3.10;;;0.52;;
30062;SDS011;16889;67.864;24.990;2022-08-06T18:42:41;1.38;;;0.60;;
30062;SDS011;16889;67.864;24.990;2022-08-06T18:47:27;5.32;;;1.10;;
30062;SDS011;16889;67.864;24.990;2022-08-06T18:52:14;0.50;;;0.40;;
30062;SDS011;16889;67.864;24.990;2022-08-06T18:57:05;2.58;;;0.50;;
30062;SDS011;16889;67.864;24.990;2022-08-06T19:01:51;3.70;;;0.45;;
30062;SDS011;16889;67.864;24.990;2022-08-06T19:06:37;0.40;;;0.40;;
30062;SDS011;16889;67.864;24.990;2022-08-06T19:11:26;0.90;;;0.60;;
30062;SDS011;16889;67.864;24.990;2022-08-06T19:16:12;0.88;;;0.50;;
30062;SDS011;16889;67.864;24.990;2022-08-06T19:20:58;3.53;;;0.43;;
30062;SDS011;16889;67.864;24.990;2022-08-06T19:25:44;2.28;;;0.43;;
30062;SDS011;16889;67.864;24.990;2022-08-06T19:30:30;1.85;;;0.60;;
30062;SDS011;16889;67.864;24.990;2022-08-06T19:35:16;5.32;;;0.57;;
30062;SDS011;16889;67.864;24.990;2022-08-06T19:40:02;7.03;;;0.82;;
30062;SDS011;16889;67.864;24.990;2022-08-06T19:45:07;0.55;;;0.45;;
30062;SDS011;16889;67.864;24.990;2022-08-06T19:49:53;2.70;;;0.43;;
30062;SDS011;16889;67.864;24.990;2022-08-06T19:54:39;0.98;;;0.35;;
30062;SDS011;16889;67.864;24.990;2022-08-06T19:59:26;2.67;;;0.60;;
30062;SDS011;16889;67.864;24.990;2022-08-06T20:04:12;6.80;;;0.77;;
30062;SDS011;16889;67.864;24.990;2022-08-06T20:08:59;1.95;;;0.50;;
30062;SDS011;16889;67.864;24.990;2022-08-06T20:13:45;5.15;;;0.50;;
30062;SDS011;16889;67.864;24.990;2022-08-06T20:18:31;1.90;;;0.25;;
30062;SDS011;16889;67.864;24.990;2022-08-06T20:23:17;1.23;;;0.50;;
30062;SDS011;16889;67.864;24.990;2022-08-06T20:28:04;1.20;;;0.40;;
30062;SDS011;16889;67.864;24.990;2022-08-06T20:32:50;1.33;;;0.30;;
30062;SDS011;16889;67.864;24.990;2022-08-06T20:37:36;3.92;;;0.43;;
30062;SDS011;16889;67.864;24.990;2022-08-06T20:42:22;1.98;;;0.70;;
30062;SDS011;16889;67.864;24.990;2022-08-06T20:47:12;0.47;;;0.30;;
30062;SDS011;16889;67.864;24.990;2022-08-06T20:51:58;2.95;;;0.40;;
30062;SDS011;16889;67.864;24.990;2022-08-06T20:56:44;0.80;;;0.40;;
30062;SDS011;16889;67.864;24.990;2022-08-06T21:01:30;1.13;;;0.20;;
30062;SDS011;16889;67.864;24.990;2022-08-06T21:06:16;2.08;;;0.30;;
30062;SDS011;16889;67.864;24.990;2022-08-06T21:11:02;2.88;;;0.28;;
30062;SDS011;16889;67.864;24.990;2022-08-06T21:15:48;3.22;;;0.20;;
30062;SDS011;16889;67.864;24.990;2022-08-06T21:20:34;1.45;;;0.30;;
30062;SDS011;16889;67.864;24.990;2022-08-06T21:25:20;2.53;;;0.40;;
30062;SDS011;16889;67.864;24.990;2022-08-06T21:30:06;1.02;;;0.28;;
30062;SDS011;16889;67.864;24.990;2022-08-06T21:34:53;2.55;;;0.30;;
30062;SDS011;16889;67.864;24.990;2022-08-06T21:39:39;0.82;;;0.20;;
30062;SDS011;16889;67.864;24.990;2022-08-06T21:44:25;1.67;;;0.40;;
30062;SDS011;16889;67.864;24.990;2022-08-06T21:49:12;0.83;;;0.27;;
30062;SDS011;16889;67.864;24.990;2022-08-06T21:53:58;1.85;;;0.20;;
30062;SDS011;16889;67.864;24.990;2022-08-06T21:58:46;0.55;;;0.20;;
30062;SDS011;16889;67.864;24.990;2022-08-06T22:03:34;1.70;;;0.20;;
30062;SDS011;16889;67.864;24.990;2022-08-06T22:08:20;0.73;;;0.20;;
30062;SDS011;16889;67.864;24.990;2022-08-06T22:13:06;0.20;;;0.20;;
30062;SDS011;16889;67.864;24.990;2022-08-06T22:17:52;0.75;;;0.20;;
30062;SDS011;16889;67.864;24.990;2022-08-06T22:22:38;1.00;;;0.30;;
30062;SDS011;16889;67.864;24.990;2022-08-06T22:27:24;2.10;;;0.20;;
30062;SDS011;16889;67.864;24.990;2022-08-06T22:32:10;0.20;;;0.20;;
30062;SDS011;16889;67.864;24.990;2022-08-06T22:36:57;4.13;;;0.30;;
30062;SDS011;16889;67.864;24.990;2022-08-06T22:41:43;0.40;;;0.30;;
30062;SDS011;16889;67.864;24.990;2022-08-06T22:46:28;0.88;;;0.10;;
30062;SDS011;16889;67.864;24.990;2022-08-06T22:51:14;1.05;;;0.30;;
30062;SDS011;16889;67.864;24.990;2022-08-06T22:56:00;0.98;;;0.20;;
30062;SDS011;16889;67.864;24.990;2022-08-06T23:00:46;0.20;;;0.10;;
30062;SDS011;16889;67.864;24.990;2022-08-06T23:05:34;1.25;;;0.20;;
30062;SDS011;16889;67.864;24.990;2022-08-06T23:10:20;0.20;;;0.13;;
30062;SDS011;16889;67.864;24.990;2022-08-06T23:15:07;0.95;;;0.20;;
30062;SDS011;16889;67.864;24.990;2022-08-06T23:19:55;0.10;;;0.10;;
30062;SDS011;16889;67.864;24.990;2022-08-06T23:24:41;0.10;;;0.10;;
30062;SDS011;16889;67.864;24.990;2022-08-06T23:29:27;0.65;;;0.10;;
30062;SDS011;16889;67.864;24.990;2022-08-06T23:34:13;2.25;;;0.20;;
30062;SDS011;16889;67.864;24.990;2022-08-06T23:39:00;0.13;;;0.10;;
30062;SDS011;16889;67.864;24.990;2022-08-06T23:43:47;2.30;;;0.13;;
30062;SDS011;16889;67.864;24.990;2022-08-06T23:48:34;0.38;;;0.10;;
30062;SDS011;16889;67.864;24.990;2022-08-06T23:53:21;0.68;;;0.13;;
30062;SDS011;16889;67.864;24.990;2022-08-06T23:58:07;4.28;;;0.38;;
